Montrose, Ohio
Current Conditions -  °F | °C
As of 1:54 AM on Friday 19 Dec 2014 (Local Time) from KAKR Reporting Station
Haze Haze  
Wind Chill: 22°   Ceiling: 800
Heat Index: 30°   Visibility: 6mi
Dew Point: 26°   Wind: 8mph
Humidity: 85%   Direction: 270°W
Pressure: 30.14"   Gusts: NA
Location:  41.1631°N, 81.6352°W
Report Text: KAKR 190654Z AUTO 27007KT 6SM BR OVC008 M01/M03 A3014 RMK AO2 CIG 006V010 SLP218 I1001 T10111033 $
Loading
Personal Weather Stations






























Interactive Weather Map New forecast layout! Learn more

10-Day Weather Forecast

Advertisements
Track Severe Weather on mobile